Nautilus — ISPC — position and weather

sailwx.info

Track history (hours):
 
Tides and Currents Weather Stations Pressure Air Temp Water Temp Dewpoint Dewpoint Depression Visibility Wind Speed Wind Dir Waves Ship Positions

Nautilus

Last reported at 2014-Jul-28 16:28 UTC. Time now 2014-Jul-28 20:38 UTC.
Position N 42°49' E 010°12'.

Length 25 m.

Type: Passenger vessel. MMSI: 247205700.

Date/timePositionNaut miles runAvg speedWind from/ knotsBaromVisibWave heightAir tempDewpointWater temp
2014-Jul-28 16:28N 42°49' E 010°12'4 3.9
2014-Jul-28 15:32N 42°48' E 010°07'1 0.4
2014-Jul-28 14:04N 42°48' E 010°08'3 6.3
2014-Jul-28 13:33N 42°48' E 010°12'0 0.0
2014-Jul-28 12:33N 42°48' E 010°12'0 0.0
2014-Jul-28 11:33N 42°48' E 010°12'1 0.1
2014-Jul-28 07:06N 42°49' E 010°13'1 0.4
2014-Jul-28 05:21N 42°49' E 010°12'0 0.0
2014-Jul-28 04:32N 42°49' E 010°12'0 0.0
2014-Jul-28 03:33N 42°49' E 010°12'0 0.0
2014-Jul-28 01:21N 42°49' E 010°12'0 0.0
2014-Jul-28 00:32N 42°49' E 010°12'0 0.0
2014-Jul-27 23:31N 42°49' E 010°12'0 0.0
2014-Jul-27 21:33N 42°49' E 010°12'0 0.0
2014-Jul-27 20:30N 42°49' E 010°12'0 0.0
2014-Jul-27 19:32N 42°49' E 010°12'0 0.0
2014-Jul-27 18:34N 42°49' E 010°12'0 0.0
2014-Jul-27 17:28N 42°49' E 010°12'0 0.0
2014-Jul-27 16:08N 42°49' E 010°12'0 0.0
2014-Jul-27 15:27N 42°49' E 010°12'0 0.0
2014-Jul-27 13:15N 42°49' E 010°12'0 0.0
2014-Jul-27 06:30N 42°49' E 010°12'0 0.0
2014-Jul-26 18:09N 42°49' E 010°12'0 0.0
2014-Jul-26 17:34N 42°49' E 010°12'0 0.0
2014-Jul-26 16:33N 42°49' E 010°12'0 0.1
2014-Jul-26 13:32N 42°48' E 010°12'0 0.0
2014-Jul-26 12:22N 42°48' E 010°12'1 1.1
2014-Jul-26 11:32N 42°49' E 010°13'1 0.1
2014-Jul-26 02:26N 42°49' E 010°12'0 0.0
2014-Jul-26 01:28N 42°49' E 010°12'0 0.0
2014-Jul-26 00:12N 42°49' E 010°12'0 0.0
2014-Jul-25 23:33N 42°49' E 010°12'0 0.0
2014-Jul-25 22:33N 42°49' E 010°12'0 0.0
2014-Jul-25 20:16N 42°49' E 010°12'0 0.0
2014-Jul-25 19:33N 42°49' E 010°12'0 0.0
2014-Jul-25 18:32N 42°49' E 010°12'0 0.1
2014-Jul-25 17:29N 42°48' E 010°12'0 0.2
2014-Jul-25 15:11N 42°49' E 010°12'0 0.2
2014-Jul-25 12:32N 42°48' E 010°12'1 1.0
2014-Jul-25 11:33N 42°49' E 010°13'1 0.2
2014-Jul-25 06:33N 42°49' E 010°12'0 0.0
2014-Jul-25 05:28N 42°49' E 010°12'0 0.0
2014-Jul-25 04:28N 42°49' E 010°12'0 0.0
2014-Jul-25 03:28N 42°49' E 010°12'0 0.0
2014-Jul-25 02:32N 42°49' E 010°12'0 0.0
2014-Jul-25 01:32N 42°49' E 010°12'0 0.0
2014-Jul-25 00:34N 42°49' E 010°12'0 0.0
2014-Jul-24 23:33N 42°49' E 010°12'0 0.0
2014-Jul-24 22:28N 42°49' E 010°12'0 0.0
2014-Jul-24 21:33N 42°49' E 010°12'0 0.0
2014-Jul-24 20:33N 42°49' E 010°12'0 0.0
2014-Jul-24 19:33N 42°49' E 010°12'0 0.0
2014-Jul-24 18:34N 42°49' E 010°12'0 0.0
2014-Jul-24 17:30N 42°49' E 010°12'0 0.0
2014-Jul-24 16:28N 42°49' E 010°12'0 0.0
2014-Jul-24 15:34N 42°49' E 010°12'3 2.7
2014-Jul-24 14:31N 42°49' E 010°08'3 1.5
2014-Jul-24 12:31N 42°48' E 010°12'0 0.1
2014-Jul-24 11:32N 42°48' E 010°12'0 0.0
2014-Jul-24 07:03N 42°49' E 010°12'0 0.2
2014-Jul-24 05:29N 42°49' E 010°12'0 0.0
2014-Jul-24 04:33N 42°49' E 010°12'0 0.0
2014-Jul-24 03:34N 42°49' E 010°12'0 0.0
2014-Jul-24 02:23N 42°49' E 010°12'0 0.0
2014-Jul-24 01:33N 42°49' E 010°12'0 0.0
2014-Jul-24 00:33N 42°49' E 010°12'0 0.0
2014-Jul-23 23:31N 42°49' E 010°12'0 0.0
2014-Jul-23 22:32N 42°49' E 010°12'0 0.0
2014-Jul-23 21:26N 42°49' E 010°12'0 0.0
2014-Jul-23 20:33N 42°49' E 010°12'0 0.0
2014-Jul-23 19:33N 42°49' E 010°12'0 0.0
2014-Jul-23 18:33N 42°49' E 010°12'0 0.2
2014-Jul-23 17:34N 42°48' E 010°12'0 0.0
2014-Jul-23 15:04N 42°48' E 010°12'2 4.3
2014-Jul-23 14:34N 42°49' E 010°09'3 2.9
2014-Jul-23 13:25N 42°46' E 010°06'5 5.3
2014-Jul-23 12:32N 42°48' E 010°12'1 1.0
2014-Jul-23 11:33N 42°49' E 010°13'1 0.1
2014-Jul-23 07:14N 42°49' E 010°14'2 2.2
2014-Jul-23 06:32N 42°49' E 010°12'0 0.0
2014-Jul-23 05:21N 42°49' E 010°12'0 0.0
2014-Jul-23 04:32N 42°49' E 010°12'0 0.0
2014-Jul-23 03:25N 42°49' E 010°12'0 0.0
2014-Jul-23 02:31N 42°49' E 010°12'0 0.0
2014-Jul-23 01:33N 42°49' E 010°12'0 0.0
2014-Jul-23 00:20N 42°49' E 010°12'0 0.0
2014-Jul-22 23:28N 42°49' E 010°12'0 0.0
2014-Jul-22 22:30N 42°49' E 010°12'0 0.0
2014-Jul-22 21:33N 42°49' E 010°12'0 0.0
2014-Jul-22 20:31N 42°49' E 010°12'0 0.0
2014-Jul-22 19:27N 42°49' E 010°12'0 0.0
2014-Jul-22 18:15N 42°49' E 010°12'0 0.0
2014-Jul-22 16:22N 42°49' E 010°12'0 0.0
2014-Jul-22 15:33N 42°49' E 010°12'0 0.0
2014-Jul-22 14:05N 42°49' E 010°12'0 0.0
2014-Jul-22 13:34N 42°49' E 010°12'0 0.0
2014-Jul-22 12:34N 42°49' E 010°12'0 0.0
2014-Jul-22 10:26N 42°49' E 010°12'0 0.0
2014-Jul-22 03:13N 42°49' E 010°12'0 0.0
2014-Jul-22 02:32N 42°49' E 010°12'0 0.0
2014-Jul-22 00:17N 42°49' E 010°12'0 0.0
2014-Jul-21 22:24N 42°49' E 010°12'0 0.0
2014-Jul-21 14:26N 42°48' E 010°12'0 0.1
2014-Jul-21 13:33N 42°48' E 010°12'0 0.0
2014-Jul-21 06:32N 42°49' E 010°12'0 0.0
2014-Jul-21 05:34N 42°49' E 010°12'0 0.0
2014-Jul-21 04:34N 42°49' E 010°12'0 0.0
2014-Jul-21 03:33N 42°49' E 010°12'0 0.0
2014-Jul-21 02:33N 42°49' E 010°12'0 0.0
2014-Jul-21 01:34N 42°49' E 010°12'0 0.0
2014-Jul-21 00:34N 42°49' E 010°12'0 0.0
2014-Jul-20 23:33N 42°49' E 010°12'0 0.0
2014-Jul-20 22:32N 42°49' E 010°12'0 0.0
2014-Jul-20 21:29N 42°49' E 010°12'0 0.0
2014-Jul-20 20:33N 42°49' E 010°12'0 0.0
2014-Jul-20 19:31N 42°49' E 010°12'0 0.0
2014-Jul-20 18:33N 42°49' E 010°12'0 0.0
2014-Jul-20 17:33N 42°49' E 010°12'0 0.0
2014-Jul-20 16:31N 42°49' E 010°12'5 4.6
2014-Jul-20 15:21N 42°50' E 010°19'0 0.6
2014-Jul-20 14:32N 42°49' E 010°19'5 3.6
2014-Jul-20 13:07N 42°48' E 010°12'6 1.9
2014-Jul-20 10:03N 42°50' E 010°20'3 1.0
2014-Jul-20 07:34N 42°50' E 010°16'3 3.4
2014-Jul-20 06:33N 42°49' E 010°12'0 0.0
2014-Jul-20 05:30N 42°49' E 010°12'0 0.0
2014-Jul-20 04:29N 42°49' E 010°12'0 0.0
2014-Jul-20 03:33N 42°49' E 010°12'0 0.0
2014-Jul-20 02:32N 42°49' E 010°12'0 0.0
2014-Jul-20 01:33N 42°49' E 010°12'0 0.0
2014-Jul-20 00:31N 42°49' E 010°12'0 0.0
2014-Jul-19 23:31N 42°49' E 010°12'0 0.0
2014-Jul-19 20:32N 42°49' E 010°12'0 0.0
2014-Jul-19 18:32N 42°49' E 010°12'4 1.3
2014-Jul-19 15:31N 42°48' E 010°07'1 0.8
2014-Jul-19 14:15N 42°47' E 010°06'4 6.3
2014-Jul-19 13:32N 42°48' E 010°12'0 0.0
2014-Jul-19 12:34N 42°48' E 010°12'0 0.4
2014-Jul-19 11:33N 42°49' E 010°12'6 4.7
2014-Jul-19 10:20N 42°49' E 010°20'2 2.4
2014-Jul-19 09:33N 42°50' E 010°18'1 1.4
2014-Jul-19 08:33N 42°49' E 010°19'2 2.4
2014-Jul-19 07:34N 42°50' E 010°17'4 3.7
2014-Jul-19 06:34N 42°49' E 010°12'0 0.0
2014-Jul-19 05:33N 42°49' E 010°12'0 0.0
2014-Jul-19 04:34N 42°49' E 010°12'0 0.0
2014-Jul-19 03:34N 42°49' E 010°12'0 0.0
2014-Jul-19 02:33N 42°49' E 010°12'0 0.0
2014-Jul-19 01:34N 42°49' E 010°12'0 0.0
2014-Jul-19 00:31N 42°49' E 010°12'0 0.0
2014-Jul-18 23:28N 42°49' E 010°12'0 0.0
2014-Jul-18 22:32N 42°49' E 010°12'0 0.0
2014-Jul-18 21:15N 42°49' E 010°12'0 0.0
2014-Jul-18 20:33N 42°49' E 010°12'0 0.0
2014-Jul-18 19:33N 42°49' E 010°12'0 0.0
2014-Jul-18 18:33N 42°49' E 010°12'0 0.2
2014-Jul-18 17:33N 42°48' E 010°12'5 5.2
2014-Jul-18 16:32N 42°45' E 010°06'  
Track history (hours):
 
Tides and Currents Weather Stations Pressure Air Temp Water Temp Dewpoint Dewpoint Depression Visibility Wind Speed Wind Dir Waves Ship Positions

Nautilus

Last reported at 2014-Jul-28 16:28 UTC. Time now 2014-Jul-28 20:38 UTC.
Position N 42°49' E 010°12'.

Length 25 m.

Type: Passenger vessel. MMSI: 247205700.

Date/timePositionNaut miles runAvg speedWind from/ knotsBaromVisibWave heightAir tempDewpointWater temp
2014-Jul-28 16:28N 42°49' E 010°12'4 3.9
2014-Jul-28 15:32N 42°48' E 010°07'1 0.4
2014-Jul-28 14:04N 42°48' E 010°08'3 6.3
2014-Jul-28 13:33N 42°48' E 010°12'0 0.0
2014-Jul-28 12:33N 42°48' E 010°12'0 0.0
2014-Jul-28 11:33N 42°48' E 010°12'1 0.1
2014-Jul-28 07:06N 42°49' E 010°13'1 0.4
2014-Jul-28 05:21N 42°49' E 010°12'0 0.0
2014-Jul-28 04:32N 42°49' E 010°12'0 0.0
2014-Jul-28 03:33N 42°49' E 010°12'0 0.0
2014-Jul-28 01:21N 42°49' E 010°12'0 0.0
2014-Jul-28 00:32N 42°49' E 010°12'0 0.0
2014-Jul-27 23:31N 42°49' E 010°12'0 0.0
2014-Jul-27 21:33N 42°49' E 010°12'0 0.0
2014-Jul-27 20:30N 42°49' E 010°12'0 0.0
2014-Jul-27 19:32N 42°49' E 010°12'0 0.0
2014-Jul-27 18:34N 42°49' E 010°12'0 0.0
2014-Jul-27 17:28N 42°49' E 010°12'0 0.0
2014-Jul-27 16:08N 42°49' E 010°12'0 0.0
2014-Jul-27 15:27N 42°49' E 010°12'0 0.0
2014-Jul-27 13:15N 42°49' E 010°12'0 0.0
2014-Jul-27 06:30N 42°49' E 010°12'0 0.0
2014-Jul-26 18:09N 42°49' E 010°12'0 0.0
2014-Jul-26 17:34N 42°49' E 010°12'0 0.0
2014-Jul-26 16:33N 42°49' E 010°12'0 0.1
2014-Jul-26 13:32N 42°48' E 010°12'0 0.0
2014-Jul-26 12:22N 42°48' E 010°12'1 1.1
2014-Jul-26 11:32N 42°49' E 010°13'1 0.1
2014-Jul-26 02:26N 42°49' E 010°12'0 0.0
2014-Jul-26 01:28N 42°49' E 010°12'0 0.0
2014-Jul-26 00:12N 42°49' E 010°12'0 0.0
2014-Jul-25 23:33N 42°49' E 010°12'0 0.0
2014-Jul-25 22:33N 42°49' E 010°12'0 0.0
2014-Jul-25 20:16N 42°49' E 010°12'0 0.0
2014-Jul-25 19:33N 42°49' E 010°12'0 0.0
2014-Jul-25 18:32N 42°49' E 010°12'0 0.1
2014-Jul-25 17:29N 42°48' E 010°12'0 0.2
2014-Jul-25 15:11N 42°49' E 010°12'0 0.2
2014-Jul-25 12:32N 42°48' E 010°12'1 1.0
2014-Jul-25 11:33N 42°49' E 010°13'1 0.2
2014-Jul-25 06:33N 42°49' E 010°12'0 0.0
2014-Jul-25 05:28N 42°49' E 010°12'0 0.0
2014-Jul-25 04:28N 42°49' E 010°12'0 0.0
2014-Jul-25 03:28N 42°49' E 010°12'0 0.0
2014-Jul-25 02:32N 42°49' E 010°12'0 0.0
2014-Jul-25 01:32N 42°49' E 010°12'0 0.0
2014-Jul-25 00:34N 42°49' E 010°12'0 0.0
2014-Jul-24 23:33N 42°49' E 010°12'0 0.0
2014-Jul-24 22:28N 42°49' E 010°12'0 0.0
2014-Jul-24 21:33N 42°49' E 010°12'0 0.0
2014-Jul-24 20:33N 42°49' E 010°12'0 0.0
2014-Jul-24 19:33N 42°49' E 010°12'0 0.0
2014-Jul-24 18:34N 42°49' E 010°12'0 0.0
2014-Jul-24 17:30N 42°49' E 010°12'0 0.0
2014-Jul-24 16:28N 42°49' E 010°12'0 0.0
2014-Jul-24 15:34N 42°49' E 010°12'3 2.7
2014-Jul-24 14:31N 42°49' E 010°08'3 1.5
2014-Jul-24 12:31N 42°48' E 010°12'0 0.1
2014-Jul-24 11:32N 42°48' E 010°12'0 0.0
2014-Jul-24 07:03N 42°49' E 010°12'0 0.2
2014-Jul-24 05:29N 42°49' E 010°12'0 0.0
2014-Jul-24 04:33N 42°49' E 010°12'0 0.0
2014-Jul-24 03:34N 42°49' E 010°12'0 0.0
2014-Jul-24 02:23N 42°49' E 010°12'0 0.0
2014-Jul-24 01:33N 42°49' E 010°12'0 0.0
2014-Jul-24 00:33N 42°49' E 010°12'0 0.0
2014-Jul-23 23:31N 42°49' E 010°12'0 0.0
2014-Jul-23 22:32N 42°49' E 010°12'0 0.0
2014-Jul-23 21:26N 42°49' E 010°12'0 0.0
2014-Jul-23 20:33N 42°49' E 010°12'0 0.0
2014-Jul-23 19:33N 42°49' E 010°12'0 0.0
2014-Jul-23 18:33N 42°49' E 010°12'0 0.2
2014-Jul-23 17:34N 42°48' E 010°12'0 0.0
2014-Jul-23 15:04N 42°48' E 010°12'2 4.3
2014-Jul-23 14:34N 42°49' E 010°09'3 2.9
2014-Jul-23 13:25N 42°46' E 010°06'5 5.3
2014-Jul-23 12:32N 42°48' E 010°12'1 1.0
2014-Jul-23 11:33N 42°49' E 010°13'1 0.1
2014-Jul-23 07:14N 42°49' E 010°14'2 2.2
2014-Jul-23 06:32N 42°49' E 010°12'0 0.0
2014-Jul-23 05:21N 42°49' E 010°12'0 0.0
2014-Jul-23 04:32N 42°49' E 010°12'0 0.0
2014-Jul-23 03:25N 42°49' E 010°12'0 0.0
2014-Jul-23 02:31N 42°49' E 010°12'0 0.0
2014-Jul-23 01:33N 42°49' E 010°12'0 0.0
2014-Jul-23 00:20N 42°49' E 010°12'0 0.0
2014-Jul-22 23:28N 42°49' E 010°12'0 0.0
2014-Jul-22 22:30N 42°49' E 010°12'0 0.0
2014-Jul-22 21:33N 42°49' E 010°12'0 0.0
2014-Jul-22 20:31N 42°49' E 010°12'0 0.0
2014-Jul-22 19:27N 42°49' E 010°12'0 0.0
2014-Jul-22 18:15N 42°49' E 010°12'0 0.0
2014-Jul-22 16:22N 42°49' E 010°12'0 0.0
2014-Jul-22 15:33N 42°49' E 010°12'0 0.0
2014-Jul-22 14:05N 42°49' E 010°12'0 0.0
2014-Jul-22 13:34N 42°49' E 010°12'0 0.0
2014-Jul-22 12:34N 42°49' E 010°12'0 0.0
2014-Jul-22 10:26N 42°49' E 010°12'0 0.0
2014-Jul-22 03:13N 42°49' E 010°12'0 0.0
2014-Jul-22 02:32N 42°49' E 010°12'0 0.0
2014-Jul-22 00:17N 42°49' E 010°12'0 0.0
2014-Jul-21 22:24N 42°49' E 010°12'0 0.0
2014-Jul-21 14:26N 42°48' E 010°12'0 0.1
2014-Jul-21 13:33N 42°48' E 010°12'0 0.0
2014-Jul-21 06:32N 42°49' E 010°12'0 0.0
2014-Jul-21 05:34N 42°49' E 010°12'0 0.0
2014-Jul-21 04:34N 42°49' E 010°12'0 0.0
2014-Jul-21 03:33N 42°49' E 010°12'0 0.0
2014-Jul-21 02:33N 42°49' E 010°12'0 0.0
2014-Jul-21 01:34N 42°49' E 010°12'0 0.0
2014-Jul-21 00:34N 42°49' E 010°12'0 0.0
2014-Jul-20 23:33N 42°49' E 010°12'0 0.0
2014-Jul-20 22:32N 42°49' E 010°12'0 0.0
2014-Jul-20 21:29N 42°49' E 010°12'0 0.0
2014-Jul-20 20:33N 42°49' E 010°12'0 0.0
2014-Jul-20 19:31N 42°49' E 010°12'0 0.0
2014-Jul-20 18:33N 42°49' E 010°12'0 0.0
2014-Jul-20 17:33N 42°49' E 010°12'0 0.0
2014-Jul-20 16:31N 42°49' E 010°12'5 4.6
2014-Jul-20 15:21N 42°50' E 010°19'0 0.6
2014-Jul-20 14:32N 42°49' E 010°19'5 3.6
2014-Jul-20 13:07N 42°48' E 010°12'6 1.9
2014-Jul-20 10:03N 42°50' E 010°20'3 1.0
2014-Jul-20 07:34N 42°50' E 010°16'3 3.4
2014-Jul-20 06:33N 42°49' E 010°12'0 0.0
2014-Jul-20 05:30N 42°49' E 010°12'0 0.0
2014-Jul-20 04:29N 42°49' E 010°12'0 0.0
2014-Jul-20 03:33N 42°49' E 010°12'0 0.0
2014-Jul-20 02:32N 42°49' E 010°12'0 0.0
2014-Jul-20 01:33N 42°49' E 010°12'0 0.0
2014-Jul-20 00:31N 42°49' E 010°12'0 0.0
2014-Jul-19 23:31N 42°49' E 010°12'0 0.0
2014-Jul-19 20:32N 42°49' E 010°12'0 0.0
2014-Jul-19 18:32N 42°49' E 010°12'4 1.3
2014-Jul-19 15:31N 42°48' E 010°07'1 0.8
2014-Jul-19 14:15N 42°47' E 010°06'4 6.3
2014-Jul-19 13:32N 42°48' E 010°12'0 0.0
2014-Jul-19 12:34N 42°48' E 010°12'0 0.4
2014-Jul-19 11:33N 42°49' E 010°12'6 4.7
2014-Jul-19 10:20N 42°49' E 010°20'2 2.4
2014-Jul-19 09:33N 42°50' E 010°18'1 1.4
2014-Jul-19 08:33N 42°49' E 010°19'2 2.4
2014-Jul-19 07:34N 42°50' E 010°17'4 3.7
2014-Jul-19 06:34N 42°49' E 010°12'0 0.0
2014-Jul-19 05:33N 42°49' E 010°12'0 0.0
2014-Jul-19 04:34N 42°49' E 010°12'0 0.0
2014-Jul-19 03:34N 42°49' E 010°12'0 0.0
2014-Jul-19 02:33N 42°49' E 010°12'0 0.0
2014-Jul-19 01:34N 42°49' E 010°12'0 0.0
2014-Jul-19 00:31N 42°49' E 010°12'0 0.0
2014-Jul-18 23:28N 42°49' E 010°12'0 0.0
2014-Jul-18 22:32N 42°49' E 010°12'0 0.0
2014-Jul-18 21:15N 42°49' E 010°12'0 0.0
2014-Jul-18 20:33N 42°49' E 010°12'0 0.0
2014-Jul-18 19:33N 42°49' E 010°12'0 0.0
2014-Jul-18 18:33N 42°49' E 010°12'0 0.2
2014-Jul-18 17:33N 42°48' E 010°12'5 5.2
2014-Jul-18 16:32N 42°45' E 010°06'  

Dump ship's entire track history